Time;durP1;ratioP1;P1;durP2;ratioP2;P2;SDS_P1;SDS_P2;PMS_P1;PMS_P2;Temp;Humidity;BMP_temperature;BMP_pressure;BME280_temperature;BME280_humidity;BME280_pressure;Samples;Min_cycle;Max_cycle;Signal;HPM_P1;HPM_P2
2022/03/04 00:01:55;;;;;;;17.37;12.57;;;-0.70;97.40;;;;;;5091381;28;20205;-73
2022/03/04 00:04:21;;;;;;;18.37;12.00;;;-0.70;98.30;;;;;;5094004;28;20194;-73
2022/03/04 00:06:47;;;;;;;18.37;12.10;;;-0.80;98.60;;;;;;5082224;28;20286;-73
2022/03/04 00:09:13;;;;;;;17.07;12.00;;;-0.80;98.90;;;;;;5087099;28;20246;-73
2022/03/04 00:11:39;;;;;;;20.90;12.90;;;-0.90;99.40;;;;;;5089957;28;20215;-73
2022/03/04 00:14:05;;;;;;;17.20;12.77;;;-0.90;99.80;;;;;;5090807;28;20269;-73
2022/03/04 00:16:31;;;;;;;16.63;12.37;;;-0.90;99.90;;;;;;5087293;28;20278;-73
2022/03/04 00:19:06;;;;;;;19.83;13.00;;;-1.00;99.90;;;;;;5086136;28;20258;-73
2022/03/04 00:21:38;;;;;;;15.17;10.77;;;-1.00;99.90;;;;;;5083189;28;20206;-73
2022/03/04 00:24:08;;;;;;;17.60;12.47;;;-1.00;99.90;;;;;;5086588;28;20207;-73
2022/03/04 00:26:34;;;;;;;18.07;13.47;;;-1.00;99.90;;;;;;5089808;28;20186;-73
2022/03/04 00:29:00;;;;;;;18.90;12.20;;;-1.00;99.90;;;;;;5089731;28;20254;-73
2022/03/04 00:31:26;;;;;;;19.13;12.83;;;-1.00;99.90;;;;;;5090151;28;20186;-73
2022/03/04 00:33:52;;;;;;;17.27;12.37;;;-1.00;99.90;;;;;;5092346;28;20673;-73
2022/03/04 00:36:22;;;;;;;20.23;12.87;;;-0.90;99.90;;;;;;5087617;28;20179;-73
2022/03/04 00:38:51;;;;;;;18.90;12.23;;;-1.00;99.90;;;;;;5089548;28;20621;-73
2022/03/04 00:41:18;;;;;;;16.27;12.27;;;-1.00;99.90;;;;;;5085460;28;20567;-73
2022/03/04 00:43:44;;;;;;;22.23;12.80;;;-1.00;99.90;;;;;;5091931;28;20371;-73
2022/03/04 00:46:10;;;;;;;17.03;11.20;;;-1.00;99.90;;;;;;5088960;28;20253;-73
2022/03/04 00:48:36;;;;;;;19.13;13.03;;;-1.00;99.90;;;;;;5089126;28;20257;-73
2022/03/04 00:51:02;;;;;;;18.57;12.67;;;-1.00;99.90;;;;;;5085242;28;20179;-72
2022/03/04 00:53:28;;;;;;;15.10;11.70;;;-1.00;99.90;;;;;;5086032;28;20615;-73
2022/03/04 00:55:54;;;;;;;14.57;11.23;;;-1.10;99.90;;;;;;5082772;28;20213;-73
2022/03/04 00:58:19;;;;;;;18.83;13.33;;;-1.00;99.90;;;;;;5087193;28;20186;-73
2022/03/04 01:00:45;;;;;;;16.40;12.07;;;-1.10;99.90;;;;;;5092230;28;20537;-73
2022/03/04 01:03:10;;;;;;;15.23;12.07;;;-1.10;99.90;;;;;;5089601;28;20246;-73
2022/03/04 01:05:37;;;;;;;19.90;13.47;;;-1.10;99.90;;;;;;5087768;28;20198;-73
2022/03/04 01:08:03;;;;;;;16.40;12.10;;;-1.20;99.90;;;;;;5089672;28;20202;-73
2022/03/04 01:10:29;;;;;;;17.07;12.30;;;-1.20;99.90;;;;;;5090278;28;20221;-72
2022/03/04 01:12:54;;;;;;;18.57;13.07;;;-1.20;99.90;;;;;;5090198;28;20265;-72
2022/03/04 01:15:20;;;;;;;16.63;12.13;;;-1.20;99.90;;;;;;5088855;28;20171;-72
2022/03/04 01:17:46;;;;;;;14.80;12.03;;;-1.20;99.90;;;;;;5091130;28;20596;-73
2022/03/04 01:20:11;;;;;;;16.40;12.23;;;-1.10;99.90;;;;;;5088485;28;20227;-73
2022/03/04 01:22:37;;;;;;;18.77;13.67;;;-1.20;99.90;;;;;;5086673;28;20301;-73
2022/03/04 01:25:03;;;;;;;19.73;13.17;;;-1.30;99.90;;;;;;5083147;28;20205;-73
2022/03/04 01:27:29;;;;;;;20.00;12.77;;;-1.30;99.90;;;;;;5077269;28;20176;-72
2022/03/04 01:29:55;;;;;;;16.07;11.57;;;-1.40;99.90;;;;;;5075677;28;20665;-73
2022/03/04 01:32:20;;;;;;;19.43;12.73;;;-1.40;99.90;;;;;;5087653;28;20205;-74
2022/03/04 01:34:46;;;;;;;17.17;12.67;;;-1.40;99.90;;;;;;5083508;28;20235;-72
2022/03/04 01:37:11;;;;;;;18.67;12.50;;;-1.40;99.90;;;;;;5075580;28;20262;-72
2022/03/04 01:39:37;;;;;;;17.80;12.33;;;-1.40;99.90;;;;;;5081911;28;20732;-72
2022/03/04 01:42:03;;;;;;;16.70;12.47;;;-1.40;99.90;;;;;;5078124;28;20256;-72
2022/03/04 01:44:29;;;;;;;16.77;12.53;;;-1.60;99.90;;;;;;5082467;28;20265;-72
2022/03/04 01:46:55;;;;;;;21.97;13.77;;;-1.60;99.90;;;;;;5078606;28;20190;-72
2022/03/04 01:49:20;;;;;;;19.07;12.57;;;-1.70;99.90;;;;;;5082955;28;20185;-72
2022/03/04 01:51:46;;;;;;;21.93;13.67;;;-1.70;99.90;;;;;;5091360;28;20274;-72
2022/03/04 01:54:12;;;;;;;17.77;12.40;;;-1.70;99.90;;;;;;5088225;28;20195;-72
2022/03/04 01:56:38;;;;;;;19.00;13.03;;;-1.70;99.90;;;;;;5085143;28;20179;-72
2022/03/04 01:59:04;;;;;;;20.23;14.20;;;-1.70;99.90;;;;;;5087259;28;20167;-72
2022/03/04 02:01:30;;;;;;;20.53;13.57;;;-1.70;99.90;;;;;;5089024;28;20198;-72
2022/03/04 02:03:56;;;;;;;17.13;13.00;;;-1.70;99.90;;;;;;5082687;28;20198;-72
2022/03/04 02:06:21;;;;;;;18.27;13.07;;;-1.80;99.90;;;;;;5088411;28;20175;-71
2022/03/04 02:08:47;;;;;;;19.73;13.50;;;-1.80;99.90;;;;;;5087346;28;20171;-72
2022/03/04 02:11:13;;;;;;;20.47;13.53;;;-1.80;99.90;;;;;;5085924;28;20175;-72
2022/03/04 02:13:39;;;;;;;21.83;13.83;;;-1.80;99.90;;;;;;5084663;28;20201;-72
2022/03/04 02:16:17;;;;;;;20.57;14.23;;;-1.80;99.90;;;;;;5089357;28;20167;-71
2022/03/04 02:18:43;;;;;;;21.60;14.40;;;-1.80;99.90;;;;;;5087025;28;20197;-72
2022/03/04 02:21:10;;;;;;;19.67;15.00;;;-1.80;99.90;;;;;;5086440;28;20645;-72
2022/03/04 02:23:36;;;;;;;20.33;13.43;;;-1.80;99.90;;;;;;5086604;28;20178;-72
2022/03/04 02:26:01;;;;;;;20.77;13.27;;;-1.90;99.90;;;;;;5085600;28;20183;-72
2022/03/04 02:28:27;;;;;;;18.13;13.90;;;-1.90;99.90;;;;;;5084854;28;20205;-72
2022/03/04 02:30:52;;;;;;;18.50;14.43;;;-1.80;99.90;;;;;;5086689;28;20615;-72
2022/03/04 02:33:18;;;;;;;19.93;14.07;;;-1.90;99.90;;;;;;5086635;28;20317;-72
2022/03/04 02:35:44;;;;;;;22.73;13.77;;;-1.90;99.90;;;;;;5085467;28;20253;-72
2022/03/04 02:38:10;;;;;;;17.67;13.23;;;-1.90;99.90;;;;;;5087530;28;20171;-73
2022/03/04 02:40:36;;;;;;;18.90;13.33;;;-1.90;99.90;;;;;;5086890;28;20174;-71
2022/03/04 02:43:02;;;;;;;17.87;12.83;;;-2.00;99.90;;;;;;5089783;28;20206;-72
2022/03/04 02:45:28;;;;;;;18.50;12.70;;;-2.00;99.90;;;;;;5085155;28;20236;-72
2022/03/04 02:47:53;;;;;;;20.47;13.77;;;-2.00;99.90;;;;;;5088934;28;20181;-72
2022/03/04 02:50:19;;;;;;;21.40;13.73;;;-2.00;99.90;;;;;;5085906;28;20185;-72
2022/03/04 02:52:45;;;;;;;18.90;13.23;;;-2.00;99.90;;;;;;5083394;28;20214;-72
2022/03/04 02:55:12;;;;;;;23.00;14.23;;;-2.00;99.90;;;;;;5087230;28;20177;-72
2022/03/04 02:57:40;;;;;;;21.20;13.17;;;-2.10;99.90;;;;;;5087115;28;20543;-71
2022/03/04 03:00:06;;;;;;;18.23;13.60;;;-2.20;99.90;;;;;;5087388;28;20315;-72
2022/03/04 03:02:31;;;;;;;23.67;14.63;;;-2.20;99.90;;;;;;5087871;28;20282;-71
2022/03/04 03:04:57;;;;;;;21.27;14.27;;;-2.30;99.90;;;;;;5090148;28;20282;-71
2022/03/04 03:07:23;;;;;;;17.27;12.50;;;-2.30;99.90;;;;;;5085605;28;20206;-71
2022/03/04 03:09:49;;;;;;;20.03;14.43;;;-2.30;99.90;;;;;;5088633;28;20174;-71
2022/03/04 03:12:15;;;;;;;20.20;13.40;;;-2.30;99.90;;;;;;5086222;28;20286;-71
2022/03/04 03:14:40;;;;;;;20.37;13.90;;;-2.30;99.90;;;;;;5090832;28;20269;-71
2022/03/04 03:17:06;;;;;;;20.20;13.93;;;-2.40;99.90;;;;;;5085638;28;20539;-71
2022/03/04 03:19:31;;;;;;;17.60;14.07;;;-2.40;99.90;;;;;;5090784;28;20209;-72
2022/03/04 03:21:57;;;;;;;20.60;14.87;;;-2.40;99.90;;;;;;5091035;28;20194;-71
2022/03/04 03:24:23;;;;;;;22.10;15.00;;;-2.40;99.90;;;;;;5085905;28;20186;-71
2022/03/04 03:26:48;;;;;;;19.37;13.77;;;-2.40;99.90;;;;;;5090225;28;20182;-72
2022/03/04 03:29:14;;;;;;;22.07;14.13;;;-2.40;99.90;;;;;;5090332;28;20185;-72
2022/03/04 03:31:39;;;;;;;21.90;14.37;;;-2.40;99.90;;;;;;5093257;28;20578;-72
2022/03/04 03:34:05;;;;;;;19.83;13.67;;;-2.40;99.90;;;;;;5090836;28;20170;-72
2022/03/04 03:36:31;;;;;;;21.60;14.20;;;-2.40;99.90;;;;;;5085263;28;20183;-72
2022/03/04 03:38:56;;;;;;;21.13;15.30;;;-2.40;99.90;;;;;;5092665;28;20273;-72
2022/03/04 03:41:22;;;;;;;22.03;14.60;;;-2.40;99.90;;;;;;5093170;28;20224;-72
2022/03/04 03:43:47;;;;;;;19.43;13.57;;;-2.40;99.90;;;;;;5083187;28;20277;-72
2022/03/04 03:46:13;;;;;;;20.00;13.53;;;-2.40;99.90;;;;;;5090005;28;20174;-72
2022/03/04 03:48:40;;;;;;;21.77;14.07;;;-2.40;99.90;;;;;;5094763;28;20167;-72
2022/03/04 03:51:06;;;;;;;21.53;14.37;;;-2.40;99.90;;;;;;5091876;28;20162;-72
2022/03/04 03:53:32;;;;;;;19.10;13.73;;;-2.30;99.90;;;;;;5087520;28;20680;-72
2022/03/04 03:55:57;;;;;;;20.30;14.53;;;-2.30;99.90;;;;;;5091851;28;20181;-72
2022/03/04 03:58:23;;;;;;;21.77;15.47;;;-2.40;99.90;;;;;;5086288;28;20649;-72
2022/03/04 04:00:49;;;;;;;23.33;14.80;;;-2.40;99.90;;;;;;5089953;28;20545;-73
2022/03/04 04:03:15;;;;;;;22.67;15.00;;;-2.40;99.90;;;;;;5089481;28;20214;-73
2022/03/04 04:05:40;;;;;;;21.13;14.03;;;-2.40;99.90;;;;;;5091428;28;20218;-73
2022/03/04 04:08:06;;;;;;;19.40;13.43;;;-2.40;99.90;;;;;;5076290;28;20182;-72
2022/03/04 04:10:32;;;;;;;20.77;14.63;;;-2.40;99.90;;;;;;5088414;28;20189;-72
2022/03/04 04:12:58;;;;;;;21.67;14.23;;;-2.30;99.90;;;;;;5089438;28;20688;-72
2022/03/04 04:15:23;;;;;;;19.30;13.87;;;-2.40;99.90;;;;;;5088406;28;20576;-72
2022/03/04 04:17:49;;;;;;;22.93;14.73;;;-2.40;99.90;;;;;;5090836;28;20181;-72
2022/03/04 04:20:15;;;;;;;25.13;16.17;;;-2.50;99.90;;;;;;5089970;28;20186;-72
2022/03/04 04:22:40;;;;;;;21.70;14.80;;;-2.50;99.90;;;;;;5089630;28;20598;-72
2022/03/04 04:25:06;;;;;;;24.37;16.67;;;-2.50;99.90;;;;;;5089980;28;20183;-72
2022/03/04 04:27:32;;;;;;;21.53;14.83;;;-2.50;99.90;;;;;;5089477;28;20575;-72
2022/03/04 04:29:58;;;;;;;26.67;16.57;;;-2.50;99.90;;;;;;5088501;28;20538;-72
2022/03/04 04:32:24;;;;;;;21.37;14.27;;;-2.50;99.90;;;;;;5090662;28;20206;-72
2022/03/04 04:34:49;;;;;;;23.53;17.03;;;-2.50;99.90;;;;;;5093658;28;20198;-72
2022/03/04 04:37:15;;;;;;;23.93;16.23;;;-2.50;99.90;;;;;;5090075;28;20194;-72
2022/03/04 04:39:40;;;;;;;24.60;15.93;;;-2.60;99.90;;;;;;5086973;28;20183;-71
2022/03/04 04:42:06;;;;;;;21.83;14.90;;;-2.50;99.90;;;;;;5089662;28;20244;-72
2022/03/04 04:44:32;;;;;;;26.00;16.80;;;-2.50;99.90;;;;;;5087859;28;20182;-72
2022/03/04 04:46:57;;;;;;;21.93;14.03;;;-2.50;99.90;;;;;;5089866;28;20174;-72
2022/03/04 04:49:25;;;;;;;20.53;14.60;;;-2.50;99.90;;;;;;5086456;28;20258;-71
2022/03/04 04:51:51;;;;;;;24.93;16.20;;;-2.60;99.90;;;;;;5086090;28;20198;-70
2022/03/04 04:54:16;;;;;;;22.67;15.10;;;-2.60;99.90;;;;;;5084272;28;20235;-72
2022/03/04 04:56:42;;;;;;;22.47;15.53;;;-2.60;99.90;;;;;;5088974;28;20175;-71
2022/03/04 04:59:08;;;;;;;21.90;15.20;;;-2.60;99.90;;;;;;5087113;28;20178;-72
2022/03/04 05:01:33;;;;;;;23.03;15.83;;;-2.70;99.90;;;;;;5092000;28;20311;-72
2022/03/04 05:03:59;;;;;;;21.60;15.63;;;-2.60;99.90;;;;;;5088747;28;20632;-71
2022/03/04 05:06:24;;;;;;;26.10;16.43;;;-2.60;99.90;;;;;;5086357;28;20179;-71
2022/03/04 05:08:50;;;;;;;24.10;15.43;;;-2.70;99.90;;;;;;5090368;28;20254;-71
2022/03/04 05:11:15;;;;;;;23.27;15.90;;;-2.70;99.90;;;;;;5090364;28;20254;-71
2022/03/04 05:13:41;;;;;;;24.67;16.03;;;-2.70;99.90;;;;;;5087324;28;20213;-71
2022/03/04 05:16:07;;;;;;;23.03;15.77;;;-2.80;99.90;;;;;;5089434;28;20234;-72
2022/03/04 05:18:32;;;;;;;24.67;16.57;;;-2.80;99.90;;;;;;5089394;28;20170;-72
2022/03/04 05:20:58;;;;;;;28.40;18.03;;;-2.90;99.90;;;;;;5089916;28;20828;-72
2022/03/04 05:26:08;;;;;;;23.93;17.40;;;-2.90;99.90;;;;;;5089731;28;20676;-72
2022/03/04 05:28:34;;;;;;;28.23;17.47;;;-2.90;99.90;;;;;;5087255;28;20179;-72
2022/03/04 05:31:00;;;;;;;29.87;19.47;;;-2.90;99.90;;;;;;5091729;28;20253;-72
2022/03/04 05:33:25;;;;;;;26.60;16.93;;;-2.80;99.90;;;;;;5085573;28;20340;-72
2022/03/04 05:35:51;;;;;;;29.43;19.40;;;-2.80;99.90;;;;;;5083208;28;20567;-72
2022/03/04 05:38:17;;;;;;;28.40;18.00;;;-2.80;99.90;;;;;;5085735;28;20171;-72
2022/03/04 05:40:42;;;;;;;30.17;19.77;;;-2.80;99.90;;;;;;5083430;28;20772;-72
2022/03/04 05:43:08;;;;;;;30.93;17.83;;;-2.80;99.90;;;;;;5087026;28;20199;-72
2022/03/04 05:45:34;;;;;;;27.00;17.07;;;-2.80;99.90;;;;;;5085656;28;20185;-72
2022/03/04 05:48:00;;;;;;;26.83;18.23;;;-2.80;99.90;;;;;;5082194;28;20183;-72
2022/03/04 05:50:26;;;;;;;26.60;17.23;;;-2.80;99.90;;;;;;5086173;28;20579;-71
2022/03/04 05:52:51;;;;;;;26.30;17.40;;;-2.70;99.90;;;;;;5080755;28;20214;-72
2022/03/04 05:55:17;;;;;;;26.43;18.27;;;-2.70;99.90;;;;;;5086452;28;20170;-72
2022/03/04 05:57:42;;;;;;;25.40;18.20;;;-2.70;99.90;;;;;;5078120;28;20181;-72
2022/03/04 06:00:09;;;;;;;28.57;16.40;;;-2.60;99.90;;;;;;5085164;28;20257;-73
2022/03/04 06:02:34;;;;;;;29.37;17.40;;;-2.60;99.90;;;;;;5087839;28;20218;-73
2022/03/04 06:05:00;;;;;;;29.67;18.47;;;-2.50;99.90;;;;;;5087122;28;20539;-73
2022/03/04 06:07:25;;;;;;;30.03;17.73;;;-2.50;99.90;;;;;;5077073;28;20186;-74
2022/03/04 06:09:51;;;;;;;25.83;17.83;;;-2.40;99.90;;;;;;5079366;28;20178;-73
2022/03/04 06:12:17;;;;;;;30.50;18.87;;;-2.40;99.90;;;;;;5074400;28;20202;-73
2022/03/04 06:14:42;;;;;;;30.10;17.87;;;-2.40;99.90;;;;;;5086243;28;20198;-72
2022/03/04 06:17:08;;;;;;;27.50;18.20;;;-2.40;99.90;;;;;;5087091;28;20202;-72
2022/03/04 06:19:34;;;;;;;32.40;20.07;;;-2.40;99.90;;;;;;5086432;28;20174;-71
2022/03/04 06:21:59;;;;;;;35.37;18.63;;;-2.40;99.90;;;;;;5079429;28;20205;-71
2022/03/04 06:24:25;;;;;;;30.17;19.23;;;-2.40;99.90;;;;;;5087427;28;20172;-72
2022/03/04 06:26:50;;;;;;;35.43;21.03;;;-2.30;99.90;;;;;;5089580;28;20575;-72
2022/03/04 06:29:16;;;;;;;28.23;19.30;;;-2.30;99.90;;;;;;5084917;28;20185;-71
2022/03/04 06:31:42;;;;;;;38.37;19.90;;;-2.20;99.90;;;;;;5083949;28;20312;-71
2022/03/04 06:34:07;;;;;;;30.57;21.23;;;-2.10;99.90;;;;;;5089543;28;20679;-75
2022/03/04 06:36:33;;;;;;;29.30;19.57;;;-2.10;99.90;;;;;;5084556;28;20183;-73
2022/03/04 06:38:59;;;;;;;32.37;21.03;;;-2.00;99.90;;;;;;5087513;28;20300;-71
2022/03/04 06:41:24;;;;;;;31.83;20.13;;;-1.80;99.90;;;;;;5078727;28;20206;-70
2022/03/04 06:43:50;;;;;;;29.77;19.97;;;-1.80;99.90;;;;;;5075455;28;20171;-72
2022/03/04 06:46:16;;;;;;;28.00;18.93;;;-1.80;99.90;;;;;;5080104;28;20253;-72
2022/03/04 06:48:42;;;;;;;32.67;20.57;;;-1.70;99.90;;;;;;5078323;28;20740;-73
2022/03/04 06:51:07;;;;;;;34.63;21.87;;;-1.70;99.90;;;;;;5081941;28;20177;-72
2022/03/04 06:53:33;;;;;;;33.80;21.43;;;-1.70;99.90;;;;;;5087146;28;20624;-73
2022/03/04 06:56:00;;;;;;;32.03;19.90;;;-1.60;99.90;;;;;;5092477;28;20606;-73
2022/03/04 06:58:26;;;;;;;38.83;20.80;;;-1.50;99.90;;;;;;5081830;28;20657;-75
2022/03/04 07:00:52;;;;;;;34.57;20.00;;;-1.50;99.90;;;;;;5083365;28;20394;-74
2022/03/04 07:03:18;;;;;;;29.27;19.80;;;-1.40;99.90;;;;;;5083420;28;20223;-74
2022/03/04 07:05:45;;;;;;;31.03;19.80;;;-1.30;99.90;;;;;;5079044;28;20266;-73
2022/03/04 07:08:11;;;;;;;30.83;19.13;;;-1.20;99.90;;;;;;5083659;28;20182;-72
2022/03/04 07:10:38;;;;;;;30.87;19.43;;;-1.10;99.90;;;;;;5085969;28;20186;-73
2022/03/04 07:13:05;;;;;;;30.27;18.10;;;-1.00;99.90;;;;;;5093007;28;20194;-72
2022/03/04 07:15:30;;;;;;;38.33;18.83;;;-0.90;99.90;;;;;;5083495;28;20244;-73
2022/03/04 07:17:56;;;;;;;34.03;20.07;;;-0.80;99.90;;;;;;5083789;28;20172;-72
2022/03/04 07:20:22;;;;;;;32.10;19.80;;;-0.70;99.90;;;;;;5084122;28;20738;-73
2022/03/04 07:22:47;;;;;;;32.70;19.90;;;-0.60;99.90;;;;;;5086905;28;20280;-72
2022/03/04 07:25:15;;;;;;;28.37;18.83;;;-0.60;99.90;;;;;;5085325;28;20186;-72
2022/03/04 07:27:41;;;;;;;31.60;19.60;;;-0.50;99.90;;;;;;5088962;28;20178;-72
2022/03/04 07:30:11;;;;;;;31.47;19.63;;;-0.40;99.90;;;;;;5090864;28;20624;-72
2022/03/04 07:32:37;;;;;;;33.97;19.67;;;-0.30;99.90;;;;;;5088593;28;20292;-72
2022/03/04 07:35:03;;;;;;;29.67;18.13;;;-0.20;99.90;;;;;;5091502;28;20656;-74
2022/03/04 07:37:29;;;;;;;26.17;18.47;;;-0.20;99.90;;;;;;5086341;28;20179;-72
2022/03/04 07:39:54;;;;;;;29.37;19.40;;;0.00;99.90;;;;;;5091375;28;20553;-71
2022/03/04 07:42:21;;;;;;;30.27;19.00;;;0.00;99.90;;;;;;5092811;28;20209;-75
2022/03/04 07:44:46;;;;;;;28.43;17.27;;;0.10;99.90;;;;;;5081396;28;20167;-71
2022/03/04 07:47:12;;;;;;;28.67;17.37;;;0.20;99.90;;;;;;5079944;28;20218;-70
2022/03/04 07:49:38;;;;;;;30.57;18.17;;;0.30;99.90;;;;;;5086690;28;20174;-70
2022/03/04 07:52:04;;;;;;;25.80;17.20;;;0.40;99.90;;;;;;5090013;28;20209;-71
2022/03/04 07:54:29;;;;;;;27.57;17.53;;;0.50;99.90;;;;;;5086934;28;20253;-70
2022/03/04 07:56:55;;;;;;;27.10;15.87;;;0.50;99.90;;;;;;5093047;28;20204;-71
2022/03/04 07:59:21;;;;;;;29.47;18.83;;;0.60;99.90;;;;;;5091312;28;20777;-75
2022/03/04 08:01:47;;;;;;;29.43;17.57;;;0.70;99.90;;;;;;5079216;28;20206;-70
2022/03/04 08:04:13;;;;;;;27.83;18.23;;;0.70;99.90;;;;;;5080778;28;20222;-70
2022/03/04 08:06:39;;;;;;;28.77;17.13;;;0.80;99.90;;;;;;5085847;28;20189;-71
2022/03/04 08:09:05;;;;;;;27.40;18.03;;;0.90;99.90;;;;;;5079963;28;20187;-71
2022/03/04 08:11:31;;;;;;;27.60;17.10;;;1.00;99.90;;;;;;5083591;28;20220;-71
2022/03/04 08:13:56;;;;;;;30.73;17.67;;;1.10;99.90;;;;;;5078978;28;20175;-71
2022/03/04 08:16:24;;;;;;;26.60;17.37;;;1.20;99.90;;;;;;5085549;28;20183;-72
2022/03/04 08:18:50;;;;;;;27.17;17.50;;;1.30;99.90;;;;;;5083466;28;20760;-70
2022/03/04 08:21:15;;;;;;;28.07;18.37;;;1.20;99.90;;;;;;5082237;28;20262;-71
2022/03/04 08:23:41;;;;;;;25.90;16.60;;;1.30;99.90;;;;;;5083518;28;20272;-71
2022/03/04 08:26:07;;;;;;;28.83;18.70;;;1.30;99.90;;;;;;5079996;28;20194;-72
2022/03/04 08:28:33;;;;;;;27.00;18.70;;;1.40;99.90;;;;;;5086645;28;20217;-71
2022/03/04 08:30:59;;;;;;;28.83;18.63;;;1.50;99.90;;;;;;5082996;28;20592;-71
2022/03/04 08:33:27;;;;;;;27.83;17.80;;;1.60;99.90;;;;;;5087654;28;20257;-71
2022/03/04 08:35:53;;;;;;;28.60;17.83;;;1.70;99.90;;;;;;5089822;28;20582;-71
2022/03/04 08:38:18;;;;;;;30.13;17.93;;;1.90;99.90;;;;;;5087771;28;20250;-72
2022/03/04 08:40:44;;;;;;;31.33;18.83;;;1.90;99.90;;;;;;5090768;28;20171;-71
2022/03/04 08:43:10;;;;;;;30.27;17.40;;;2.00;99.90;;;;;;5085116;28;20209;-71
2022/03/04 08:45:35;;;;;;;28.63;17.57;;;2.10;99.90;;;;;;5086361;28;20194;-72
2022/03/04 08:48:06;;;;;;;30.90;19.27;;;2.20;99.90;;;;;;5082572;28;20191;-73
2022/03/04 08:50:35;;;;;;;30.03;18.70;;;2.30;99.90;;;;;;5087111;28;20848;-72
2022/03/04 08:53:01;;;;;;;29.33;18.70;;;2.50;99.90;;;;;;5089054;28;20221;-73
2022/03/04 08:55:28;;;;;;;28.87;18.00;;;2.70;99.90;;;;;;5087122;28;20645;-76
2022/03/04 08:57:53;;;;;;;28.90;17.73;;;2.90;99.90;;;;;;5078480;28;20177;-72
2022/03/04 09:00:19;;;;;;;25.67;17.87;;;3.10;99.90;;;;;;5077966;28;20171;-72
2022/03/04 09:02:45;;;;;;;29.37;19.20;;;3.30;99.90;;;;;;5081861;28;20210;-76
2022/03/04 09:05:11;;;;;;;22.37;16.77;;;3.50;99.90;;;;;;5081188;28;20213;-76
2022/03/04 09:07:36;;;;;;;26.07;17.07;;;3.90;99.90;;;;;;5076588;28;20222;-74
2022/03/04 09:10:04;;;;;;;24.63;16.60;;;4.20;99.90;;;;;;5076172;28;20684;-78
2022/03/04 09:12:29;;;;;;;27.60;16.67;;;4.20;99.90;;;;;;5083358;28;20286;-74
2022/03/04 09:14:55;;;;;;;24.00;16.47;;;4.50;99.90;;;;;;5078547;28;20262;-71
2022/03/04 09:17:20;;;;;;;23.07;17.33;;;5.10;99.90;;;;;;5077083;28;20180;-78
2022/03/04 09:19:46;;;;;;;26.73;18.43;;;5.30;99.90;;;;;;5076033;28;20188;-75
2022/03/04 09:22:12;;;;;;;26.17;17.00;;;5.10;99.90;;;;;;5078828;28;20199;-73
2022/03/04 09:24:37;;;;;;;28.20;17.37;;;4.80;99.90;;;;;;5079466;28;20179;-74
2022/03/04 09:27:03;;;;;;;23.70;17.67;;;4.80;99.90;;;;;;5074256;28;20266;-76
2022/03/04 09:29:29;;;;;;;24.87;17.37;;;4.90;99.90;;;;;;5078935;28;20179;-74
2022/03/04 09:31:55;;;;;;;24.07;16.80;;;5.50;99.90;;;;;;5080704;28;20214;-73
2022/03/04 09:34:20;;;;;;;25.97;15.63;;;6.70;99.90;;;;;;5090238;28;20195;-73
2022/03/04 09:36:46;;;;;;;26.92;16.40;;;9.30;99.90;;;;;;5086561;28;20258;-77
2022/03/04 09:39:12;;;;;;;22.80;16.33;;;11.90;83.40;;;;;;5081764;28;20270;-76
2022/03/04 09:41:43;;;;;;;23.42;16.15;;;14.50;66.00;;;;;;5087569;28;20218;-77
2022/03/04 09:44:09;;;;;;;21.23;15.27;;;16.40;56.40;;;;;;5087206;28;20549;-80
2022/03/04 09:46:35;;;;;;;24.13;16.35;;;18.00;52.00;;;;;;5095315;28;20179;-79
2022/03/04 09:49:01;;;;;;;22.00;15.63;;;19.60;46.90;;;;;;5106054;28;20187;-78
2022/03/04 09:51:27;;;;;;;21.23;14.98;;;20.10;43.90;;;;;;5090346;28;20247;-81
2022/03/04 09:53:53;;;;;;;19.35;15.52;;;20.90;43.00;;;;;;5083917;28;20210;-78
2022/03/04 09:56:20;;;;;;;18.83;15.82;;;21.80;41.40;;;;;;5078959;28;20522;-77
2022/03/04 09:58:49;;;;;;;18.48;14.55;;;22.10;39.00;;;;;;5081118;28;20320;-77
2022/03/04 10:01:16;;;;;;;16.10;14.10;;;22.40;39.40;;;;;;5079401;28;20619;-76
2022/03/04 10:03:46;;;;;;;17.35;13.32;;;23.00;37.30;;;;;;5087677;28;20223;-77
2022/03/04 10:06:12;;;;;;;16.20;12.55;;;23.30;37.10;;;;;;5080706;28;20736;-77
2022/03/04 10:08:44;;;;;;;15.02;12.38;;;24.10;36.20;;;;;;5080769;28;20587;-76
2022/03/04 10:11:11;;;;;;;15.27;12.27;;;24.30;35.40;;;;;;5087320;28;20652;-77
2022/03/04 10:13:51;;;;;;;14.15;11.80;;;23.60;35.40;;;;;;5083036;28;20630;-77
2022/03/04 10:16:32;;;;;;;14.43;12.18;;;24.40;35.00;;;;;;5084019;28;20497;-77
2022/03/04 10:19:15;;;;;;;12.40;10.57;;;24.90;34.10;;;;;;5079503;28;20185;-77
2022/03/04 10:21:58;;;;;;;13.55;11.45;;;25.40;33.70;;;;;;5083417;28;20220;-77
2022/03/04 10:24:35;;;;;;;13.35;11.50;;;26.00;32.70;;;;;;5082011;28;20191;-77
2022/03/04 10:27:10;;;;;;;16.45;12.25;;;26.50;32.60;;;;;;5080626;28;20676;-78
2022/03/04 10:29:43;;;;;;;13.60;12.20;;;26.60;31.80;;;;;;5087284;28;20224;-77
2022/03/04 10:32:12;;;;;;;15.20;13.18;;;25.60;32.60;;;;;;5087444;28;20213;-77
2022/03/04 10:34:54;;;;;;;14.18;12.40;;;25.40;31.80;;;;;;5080420;28;20207;-78
2022/03/04 10:37:21;;;;;;;10.88;9.60;;;25.20;31.80;;;;;;5077625;28;20199;-77
2022/03/04 10:39:58;;;;;;;10.77;8.60;;;24.60;32.80;;;;;;5076447;28;20519;-78
2022/03/04 10:42:47;;;;;;;9.38;8.45;;;23.90;32.00;;;;;;5086239;28;20226;-78
2022/03/04 10:45:17;;;;;;;10.35;8.88;;;23.40;32.90;;;;;;5081160;28;20182;-77
2022/03/04 10:47:49;;;;;;;10.52;9.48;;;23.30;32.10;;;;;;5087240;28;20186;-77
2022/03/04 10:50:19;;;;;;;12.05;10.13;;;23.10;33.80;;;;;;5080446;28;20649;-77
2022/03/04 10:52:53;;;;;;;10.57;9.48;;;23.80;32.70;;;;;;5080116;28;20274;-77
2022/03/04 10:55:31;;;;;;;12.85;11.32;;;25.40;32.30;;;;;;5077488;28;20430;-76
2022/03/04 10:57:58;;;;;;;8.73;7.53;;;25.90;31.40;;;;;;5075027;28;20171;-77
2022/03/04 11:00:34;;;;;;;7.32;6.13;;;26.00;30.10;;;;;;5090474;28;20219;-77
2022/03/04 11:03:00;;;;;;;9.57;6.50;;;26.40;29.40;;;;;;5081391;28;20214;-77
2022/03/04 11:05:26;;;;;;;7.85;6.45;;;26.50;29.30;;;;;;5075266;28;20214;-77
2022/03/04 11:07:52;;;;;;;7.95;7.15;;;26.80;29.50;;;;;;5070560;28;20274;-77
2022/03/04 11:10:19;;;;;;;8.75;7.85;;;27.40;29.30;;;;;;5077885;28;20265;-77
2022/03/04 11:12:49;;;;;;;8.10;7.30;;;26.80;29.00;;;;;;5071400;28;20210;-77
2022/03/04 11:15:16;;;;;;;8.07;7.28;;;27.20;29.50;;;;;;5081764;28;20258;-80
2022/03/04 11:17:44;;;;;;;9.43;8.52;;;28.00;29.10;;;;;;5080503;28;20175;-77
2022/03/04 11:20:10;;;;;;;9.30;8.40;;;29.10;28.70;;;;;;5078998;28;20172;-76
2022/03/04 11:22:40;;;;;;;8.07;7.28;;;28.40;28.70;;;;;;5076574;28;20390;-77
2022/03/04 11:25:12;;;;;;;7.32;6.60;;;28.10;28.70;;;;;;5086687;28;20257;-80
2022/03/04 11:27:45;;;;;;;8.07;7.38;;;28.80;28.60;;;;;;5078526;28;20195;-77
2022/03/04 11:30:34;;;;;;;6.97;6.38;;;28.60;28.60;;;;;;5080286;28;20191;-77
2022/03/04 11:33:31;;;;;;;7.93;7.13;;;28.80;28.10;;;;;;5073226;28;20575;-77
2022/03/04 11:36:03;;;;;;;8.23;6.78;;;29.70;27.30;;;;;;5077215;28;20175;-77
2022/03/04 11:38:44;;;;;;;8.15;7.45;;;29.30;27.10;;;;;;5078035;28;20167;-77
2022/03/04 11:41:10;;;;;;;8.00;7.20;;;27.30;28.10;;;;;;5076351;28;20187;-77
2022/03/04 11:43:47;;;;;;;8.20;7.50;;;25.60;29.10;;;;;;5082416;28;20210;-77
2022/03/04 11:46:27;;;;;;;7.78;6.97;;;25.50;29.60;;;;;;5089984;28;20209;-77
2022/03/04 11:49:30;;;;;;;7.72;6.93;;;25.50;29.90;;;;;;5088213;28;20178;-78
2022/03/04 11:52:11;;;;;;;7.65;6.95;;;28.10;29.10;;;;;;5091776;28;20240;-78
2022/03/04 11:54:41;;;;;;;8.77;7.13;;;29.20;27.80;;;;;;5090205;28;20186;-75
2022/03/04 11:57:34;;;;;;;10.70;9.70;;;29.10;28.60;;;;;;5085485;28;20167;-75
2022/03/04 12:00:16;;;;;;;12.38;10.57;;;30.50;28.30;;;;;;5083246;28;20179;-75
2022/03/04 12:02:41;;;;;;;11.73;10.00;;;30.50;29.20;;;;;;5087751;28;20585;-75
2022/03/04 12:05:14;;;;;;;11.48;10.13;;;30.40;29.20;;;;;;5087292;28;20178;-75
2022/03/04 12:07:44;;;;;;;11.18;10.07;;;30.20;29.10;;;;;;5092529;28;20178;-75
2022/03/04 12:10:17;;;;;;;11.20;10.13;;;29.70;29.60;;;;;;5084889;28;20219;-75
2022/03/04 12:13:05;;;;;;;11.20;10.20;;;30.10;29.20;;;;;;5087135;28;20284;-75
2022/03/04 12:15:31;;;;;;;10.50;9.48;;;29.10;29.60;;;;;;5087485;28;20186;-75
2022/03/04 12:18:03;;;;;;;10.10;9.10;;;29.90;28.70;;;;;;5078131;28;20175;-75
2022/03/04 12:20:41;;;;;;;10.15;9.15;;;29.60;28.50;;;;;;5080297;28;20190;-75
2022/03/04 12:23:14;;;;;;;9.40;8.45;;;27.20;29.70;;;;;;5090601;28;20299;-75
2022/03/04 12:25:52;;;;;;;9.85;8.88;;;26.10;30.60;;;;;;5090050;28;20175;-77
2022/03/04 12:28:33;;;;;;;9.95;9.05;;;25.40;30.90;;;;;;5088637;28;20216;-77
2022/03/04 12:31:01;;;;;;;9.90;9.05;;;24.80;31.80;;;;;;5086632;28;20179;-77
2022/03/04 12:33:28;;;;;;;10.85;8.93;;;23.40;32.40;;;;;;5087303;28;20221;-76
2022/03/04 12:35:57;;;;;;;8.63;7.72;;;22.00;33.00;;;;;;5087006;28;20177;-75